Main page
METAR-TAF:

METAR-TAF

Airports :

Philip S. W. Goldson International Airport

Belize City, Belize

latitude: 17-32N, longitude: 088-18W, elevation: 5 m

Current weather observation

The report was made 19 minutes ago, at 16:00 UTC
Wind 7 kt from the North
Temperature 28°C
Humidity 84%
Pressure 1021 hPa
Visibility 10 km or more
Scattered clouds at a height of 2000 ft

METAR: MZBZ 211600Z 35007KT 9999 SCT020 28/25 A3016 Q1021 NOSIG

Time: 10:19 (16:19 UTC)

Forecast

The report was made 5 hours and 19 minutes ago, at 11:00 UTC
Forecast valid from 21 at 12 UTC to 22 at 12 UTC
Wind 8 kt from the North/Northeast
Visibility 10 km or more
Scattered clouds at a height of 2300 ft

TAF: MZBZ 211100Z 2112/2212 03008KT 9999 SCT023

Weather observations and forecasts of more than 4000 airports (METAR and TAF reports).

The available stations are represented by yellow and red dots on the map.

Hover mouse over dot to see the name of the station.

Then click to see weather observations and forecasts.

To change the map : click on the green buttons with a black cross to zoom in, on the green button with a dash to zoom out, or on the green arrows for adjacent maps.


METAR-TAF: